createdAt,value
2022-11-12T00:04:53.886Z,18.58
2022-11-12T00:11:16.951Z,18.56
2022-11-12T00:17:40.261Z,18.52
2022-11-12T00:24:02.992Z,18.50
2022-11-12T00:30:26.166Z,18.47
2022-11-12T00:36:49.365Z,18.45
2022-11-12T00:43:12.118Z,18.42
2022-11-12T00:49:34.817Z,18.39
2022-11-12T00:55:57.722Z,18.37
2022-11-12T01:02:20.293Z,18.34
2022-11-12T01:08:42.917Z,18.32
2022-11-12T01:15:06.259Z,18.29
2022-11-12T01:21:29.116Z,18.28
2022-11-12T01:27:51.557Z,18.26
2022-11-12T01:34:14.662Z,18.23
2022-11-12T01:40:37.655Z,18.21
2022-11-12T01:47:00.541Z,18.19
2022-11-12T01:53:26.194Z,18.16
2022-11-12T01:59:49.015Z,18.15
2022-11-12T02:06:11.827Z,18.13
2022-11-12T02:12:34.580Z,18.11
2022-11-12T02:18:57.656Z,18.09
2022-11-12T02:25:20.525Z,18.07
2022-11-12T02:31:43.548Z,18.05
2022-11-12T02:38:06.472Z,18.03
2022-11-12T02:44:29.779Z,18.01
2022-11-12T02:50:46.128Z,17.99
2022-11-12T02:57:08.789Z,17.97
2022-11-12T03:03:31.636Z,17.96
2022-11-12T03:09:54.326Z,17.94
2022-11-12T03:16:17.029Z,17.93
2022-11-12T03:22:39.887Z,17.92
2022-11-12T03:29:02.746Z,17.90
2022-11-12T03:35:25.332Z,17.88
2022-11-12T03:41:48.083Z,17.87
2022-11-12T03:48:10.982Z,17.85
2022-11-12T03:54:33.731Z,17.83
2022-11-12T04:00:56.676Z,17.82
2022-11-12T04:07:17.765Z,17.80
2022-11-12T04:13:49.468Z,17.78
2022-11-12T04:20:10.516Z,17.76
2022-11-12T04:26:45.557Z,17.75
2022-11-12T04:33:08.622Z,17.73
2022-11-12T04:39:31.520Z,17.71
2022-11-12T04:45:54.252Z,17.70
2022-11-12T04:52:26.593Z,17.68
2022-11-12T04:58:49.582Z,17.66
2022-11-12T05:05:12.462Z,17.65
2022-11-12T05:11:35.420Z,17.64
2022-11-12T05:17:58.172Z,17.62
2022-11-12T05:24:40.553Z,17.61
2022-11-12T05:31:03.518Z,17.59
2022-11-12T05:37:26.581Z,17.58
2022-11-12T05:43:49.469Z,17.59
2022-11-12T05:50:12.440Z,17.65
2022-11-12T05:56:35.513Z,17.77
2022-11-12T06:02:58.636Z,17.97
2022-11-12T06:09:21.620Z,18.22
2022-11-12T06:15:39.416Z,18.47
2022-11-12T06:22:02.631Z,18.69
2022-11-12T06:28:26.036Z,18.88
2022-11-12T06:34:49.121Z,19.07
2022-11-12T06:41:12.160Z,19.25
2022-11-12T06:47:34.856Z,19.35
2022-11-12T06:54:00.707Z,19.46
2022-11-12T07:00:23.699Z,19.59
2022-11-12T07:06:46.876Z,19.71
2022-11-12T07:13:09.945Z,19.82
2022-11-12T07:19:25.671Z,19.91
2022-11-12T07:25:48.335Z,19.99
2022-11-12T07:32:11.022Z,20.11
2022-11-12T07:38:33.771Z,20.20
2022-11-12T07:44:56.662Z,20.32
2022-11-12T07:51:19.452Z,20.43
2022-11-12T07:57:42.302Z,20.48
2022-11-12T08:04:04.931Z,20.52
2022-11-12T08:10:27.535Z,20.57
2022-11-12T08:16:50.225Z,20.56
2022-11-12T08:23:12.786Z,20.51
2022-11-12T08:29:35.658Z,20.47
2022-11-12T08:35:58.249Z,20.39
2022-11-12T08:42:21.006Z,20.31
2022-11-12T08:48:42.727Z,20.25
2022-11-12T08:55:05.548Z,20.19
2022-11-12T09:01:28.134Z,20.13
2022-11-12T09:07:51.423Z,20.08
2022-11-12T09:14:14.407Z,20.04
2022-11-12T09:20:37.161Z,19.97
2022-11-12T09:26:59.815Z,19.92
2022-11-12T09:33:22.897Z,19.87
2022-11-12T09:39:45.376Z,19.81
2022-11-12T09:46:27.604Z,19.74
2022-11-12T09:52:51.293Z,19.67
2022-11-12T09:59:14.087Z,19.62
2022-11-12T10:05:58.405Z,19.58
2022-11-12T10:12:26.217Z,19.61
2022-11-12T10:18:49.567Z,19.71
2022-11-12T10:25:12.215Z,19.82
2022-11-12T10:31:35.049Z,19.88
2022-11-12T10:38:03.945Z,19.91
2022-11-12T10:44:29.921Z,19.97
2022-11-12T10:50:58.881Z,20.10
2022-11-12T10:57:21.736Z,20.29
2022-11-12T11:03:56.734Z,20.42
2022-11-12T11:10:19.578Z,20.47
2022-11-12T11:16:42.471Z,20.47
2022-11-12T11:23:22.748Z,20.47
2022-11-12T11:29:51.895Z,20.48
2022-11-12T11:36:39.367Z,20.53
2022-11-12T11:43:14.266Z,20.58
2022-11-12T11:49:40.096Z,20.57
2022-11-12T11:56:03.072Z,20.56
2022-11-12T12:02:29.328Z,20.56
2022-11-12T12:08:58.195Z,20.55
2022-11-12T12:15:21.151Z,20.53
2022-11-12T12:21:50.127Z,20.49
2022-11-12T12:28:27.250Z,20.44
2022-11-12T12:34:56.196Z,20.35
2022-11-12T12:41:18.341Z,20.26
2022-11-12T12:47:44.220Z,20.19
2022-11-12T12:54:09.800Z,20.11
2022-11-12T13:00:33.506Z,20.06
2022-11-12T13:07:10.992Z,20.00
2022-11-12T13:13:43.283Z,19.94
2022-11-12T13:20:08.966Z,19.87
2022-11-12T13:26:31.705Z,19.82
2022-11-12T13:32:51.592Z,19.76
2022-11-12T13:39:14.178Z,19.70
2022-11-12T13:45:36.823Z,19.65
2022-11-12T13:51:52.211Z,19.60
2022-11-12T13:58:15.111Z,19.56
2022-11-12T14:04:46.839Z,19.53
2022-11-12T14:11:17.186Z,19.53
2022-11-12T14:17:49.260Z,19.58
2022-11-12T14:24:18.314Z,19.75
2022-11-12T14:30:56.938Z,19.90
2022-11-12T14:37:20.108Z,20.04
2022-11-12T14:43:43.073Z,20.22
2022-11-12T14:50:21.578Z,20.39
2022-11-12T14:56:45.002Z,20.52
2022-11-12T15:03:10.926Z,20.57
2022-11-12T15:09:36.736Z,20.55
2022-11-12T15:16:05.410Z,20.51
2022-11-12T15:22:37.223Z,20.45
2022-11-12T15:29:12.524Z,20.38
2022-11-12T15:35:41.534Z,20.31
2022-11-12T15:42:04.455Z,20.26
2022-11-12T15:48:27.371Z,20.20
2022-11-12T15:54:50.159Z,20.15
2022-11-12T16:01:16.134Z,20.09
2022-11-12T16:07:38.959Z,20.04
2022-11-12T16:13:57.577Z,19.99
2022-11-12T16:20:13.470Z,19.93
2022-11-12T16:26:36.314Z,19.89
2022-11-12T16:32:58.990Z,19.84
2022-11-12T16:39:21.673Z,19.80
2022-11-12T16:45:44.366Z,19.75
2022-11-12T16:52:07.238Z,19.72
2022-11-12T16:58:29.782Z,19.67
2022-11-12T17:04:52.756Z,19.62
2022-11-12T17:11:15.531Z,19.57
2022-11-12T17:17:38.754Z,19.53
2022-11-12T17:24:01.510Z,19.51
2022-11-12T17:30:24.438Z,19.58
2022-11-12T17:36:47.163Z,19.71
2022-11-12T17:43:10.155Z,19.88
2022-11-12T17:49:24.000Z,20.07
2022-11-12T17:55:46.793Z,20.24
2022-11-12T18:02:09.666Z,20.41
2022-11-12T18:08:32.520Z,20.53
2022-11-12T18:14:55.929Z,20.60
2022-11-12T18:21:18.696Z,20.59
2022-11-12T18:27:41.486Z,20.57
2022-11-12T18:34:04.428Z,20.53
2022-11-12T18:40:27.418Z,20.47
2022-11-12T18:46:56.271Z,20.41
2022-11-12T18:53:19.226Z,20.37
2022-11-12T18:59:35.570Z,20.31
2022-11-12T19:05:58.642Z,20.27
2022-11-12T19:12:21.526Z,20.22
2022-11-12T19:18:44.266Z,20.20
2022-11-12T19:25:06.845Z,20.17
2022-11-12T19:31:29.641Z,20.14
2022-11-12T19:37:52.180Z,20.11
2022-11-12T19:44:15.318Z,20.09
2022-11-12T19:50:37.929Z,20.11
2022-11-12T19:56:43.543Z,20.18
2022-11-12T20:03:06.136Z,20.27
2022-11-12T20:09:29.156Z,20.42
2022-11-12T20:15:51.727Z,20.55
2022-11-12T20:22:14.823Z,20.70
2022-11-12T20:28:37.340Z,20.83
2022-11-12T20:34:59.954Z,20.94
2022-11-12T20:41:22.500Z,21.05
2022-11-12T20:47:45.098Z,21.08
2022-11-12T20:54:08.105Z,21.13
2022-11-12T21:00:31.169Z,21.20
2022-11-12T21:07:05.107Z,21.25
2022-11-12T21:13:28.207Z,21.32
2022-11-12T21:19:50.880Z,21.36
2022-11-12T21:26:16.503Z,21.37
2022-11-12T21:32:37.979Z,21.39
2022-11-12T21:39:00.829Z,21.38
2022-11-12T21:45:23.608Z,21.36
2022-11-12T21:51:38.066Z,21.32
2022-11-12T21:58:00.946Z,21.26
2022-11-12T22:04:23.943Z,21.21
2022-11-12T22:10:46.801Z,21.16
2022-11-12T22:17:09.583Z,21.10
2022-11-12T22:23:32.355Z,21.05
2022-11-12T22:29:55.419Z,20.99
2022-11-12T22:36:18.136Z,20.92
2022-11-12T22:42:40.891Z,20.86
2022-11-12T22:49:03.748Z,20.80
2022-11-12T22:55:26.212Z,20.74
2022-11-12T23:01:49.124Z,20.67
2022-11-12T23:08:12.275Z,20.60
2022-11-12T23:14:35.156Z,20.54
2022-11-12T23:20:57.549Z,20.48
2022-11-12T23:27:20.088Z,20.42
2022-11-12T23:33:43.104Z,20.37
2022-11-12T23:40:05.940Z,20.30
2022-11-12T23:46:28.517Z,20.24
2022-11-12T23:52:51.427Z,20.19
2022-11-12T23:59:14.278Z,20.13
